Corpus, Argentina
Current Conditions -  °F | °C
As of 6:00 PM on Monday 22 Dec 2014 (Local Time) from SGEN Reporting Station
Broken Clouds Broken Clouds  
Wind Chill: 75°   Ceiling: 8000
Heat Index: 75°   Visibility: 6mi
Dew Point: 50°   Wind: 17mph
Humidity: 41%   Direction: 180°S
Pressure: 29.91"   Gusts: NA
Location:  27.12°S, 55.52°W
Report Text: SGEN 222100Z 18015KT 9999 SCT030 BKN080 24/10 Q1013
Loading
Personal Weather Stations






























Interactive Weather Map New forecast layout! Learn more

10-Day Weather Forecast

Advertisements
Track Severe Weather on mobile